Clough, Minnesota
Current Conditions -  °F | °C
As of 2:17 AM on Tuesday 21 Oct 2014 (Local Time) from KLXL Reporting Station
Haze Haze  
Wind Chill: 34°   Ceiling: Unl
Heat Index: 34°   Visibility: 5mi
Dew Point: 32°   Wind: 0mph
Humidity: 93%   Direction: NA
Pressure: 30.13"   Gusts: NA
Location:  46.0639°N, 94.5189°W
Report Text: KLXL 210717Z AUTO 00000KT 5SM BR CLR 01/00 A3013 RMK AO2
Loading
Personal Weather Stations






























Interactive Weather Map
Tropical Storm Tracking
New forecast layout! Learn more

10-Day Weather Forecast

Advertisements
Track Severe Weather on mobile